sensor_id;sensor_type;location;lat;lon;timestamp;temperature;humidity
42907;DHT22;28552;51.146;6.576;2023-01-15T00:00:01;6.70;99.90
42907;DHT22;28552;51.146;6.576;2023-01-15T00:03:01;6.60;99.90
42907;DHT22;28552;51.146;6.576;2023-01-15T00:06:02;6.60;99.90
42907;DHT22;28552;51.146;6.576;2023-01-15T00:09:03;6.60;99.90
42907;DHT22;28552;51.146;6.576;2023-01-15T00:12:04;6.50;99.90
42907;DHT22;28552;51.146;6.576;2023-01-15T00:15:05;6.50;99.90
42907;DHT22;28552;51.146;6.576;2023-01-15T00:18:06;6.50;99.90
42907;DHT22;28552;51.146;6.576;2023-01-15T00:21:09;6.50;99.90
42907;DHT22;28552;51.146;6.576;2023-01-15T00:24:10;6.50;99.90
42907;DHT22;28552;51.146;6.576;2023-01-15T00:27:26;6.50;99.90
42907;DHT22;28552;51.146;6.576;2023-01-15T00:30:42;6.50;99.90
42907;DHT22;28552;51.146;6.576;2023-01-15T00:33:42;6.40;99.90
42907;DHT22;28552;51.146;6.576;2023-01-15T00:36:43;6.30;99.90
42907;DHT22;28552;51.146;6.576;2023-01-15T00:39:43;6.30;99.90
42907;DHT22;28552;51.146;6.576;2023-01-15T00:42:44;6.20;99.90
42907;DHT22;28552;51.146;6.576;2023-01-15T00:45:45;6.20;99.90
42907;DHT22;28552;51.146;6.576;2023-01-15T00:48:45;6.20;99.90
42907;DHT22;28552;51.146;6.576;2023-01-15T00:51:46;6.20;99.90
42907;DHT22;28552;51.146;6.576;2023-01-15T00:54:47;6.20;99.90
42907;DHT22;28552;51.146;6.576;2023-01-15T00:57:48;6.20;99.90
42907;DHT22;28552;51.146;6.576;2023-01-15T01:00:53;6.20;99.90
42907;DHT22;28552;51.146;6.576;2023-01-15T01:03:54;6.20;99.90
42907;DHT22;28552;51.146;6.576;2023-01-15T01:06:55;6.20;99.90
42907;DHT22;28552;51.146;6.576;2023-01-15T01:09:55;6.10;99.90
42907;DHT22;28552;51.146;6.576;2023-01-15T01:12:56;6.10;99.90
42907;DHT22;28552;51.146;6.576;2023-01-15T01:15:56;6.10;99.90
42907;DHT22;28552;51.146;6.576;2023-01-15T01:18:58;6.10;99.90
42907;DHT22;28552;51.146;6.576;2023-01-15T01:21:59;6.10;99.90
42907;DHT22;28552;51.146;6.576;2023-01-15T01:24:59;6.10;99.90
42907;DHT22;28552;51.146;6.576;2023-01-15T01:28:00;6.00;99.90
42907;DHT22;28552;51.146;6.576;2023-01-15T01:31:04;6.00;99.90
42907;DHT22;28552;51.146;6.576;2023-01-15T01:34:04;6.00;99.90
42907;DHT22;28552;51.146;6.576;2023-01-15T01:37:05;6.00;99.90
42907;DHT22;28552;51.146;6.576;2023-01-15T01:40:06;6.10;99.90
42907;DHT22;28552;51.146;6.576;2023-01-15T01:43:20;6.00;99.90
42907;DHT22;28552;51.146;6.576;2023-01-15T01:46:22;6.10;99.90
42907;DHT22;28552;51.146;6.576;2023-01-15T01:49:23;6.10;99.90
42907;DHT22;28552;51.146;6.576;2023-01-15T01:52:30;6.10;99.90
42907;DHT22;28552;51.146;6.576;2023-01-15T01:55:33;6.00;99.90
42907;DHT22;28552;51.146;6.576;2023-01-15T01:58:35;6.00;99.90
42907;DHT22;28552;51.146;6.576;2023-01-15T02:01:35;6.00;99.90
42907;DHT22;28552;51.146;6.576;2023-01-15T02:04:36;6.00;99.90
42907;DHT22;28552;51.146;6.576;2023-01-15T02:07:37;6.00;99.90
42907;DHT22;28552;51.146;6.576;2023-01-15T02:10:39;6.10;99.90
42907;DHT22;28552;51.146;6.576;2023-01-15T02:17:09;6.10;99.90
42907;DHT22;28552;51.146;6.576;2023-01-15T02:23:53;6.10;99.90
42907;DHT22;28552;51.146;6.576;2023-01-15T02:27:08;6.20;99.90
42907;DHT22;28552;51.146;6.576;2023-01-15T02:30:16;6.10;99.90
42907;DHT22;28552;51.146;6.576;2023-01-15T02:33:20;6.10;99.90
42907;DHT22;28552;51.146;6.576;2023-01-15T02:36:25;6.10;99.90
42907;DHT22;28552;51.146;6.576;2023-01-15T02:39:29;6.10;99.90
42907;DHT22;28552;51.146;6.576;2023-01-15T02:42:32;6.10;99.90
42907;DHT22;28552;51.146;6.576;2023-01-15T02:45:39;6.10;99.90
42907;DHT22;28552;51.146;6.576;2023-01-15T02:48:45;6.20;99.90
42907;DHT22;28552;51.146;6.576;2023-01-15T02:51:53;6.10;99.90
42907;DHT22;28552;51.146;6.576;2023-01-15T02:55:04;6.20;99.90
42907;DHT22;28552;51.146;6.576;2023-01-15T02:58:10;6.10;99.90
42907;DHT22;28552;51.146;6.576;2023-01-15T03:01:22;6.20;99.90
42907;DHT22;28552;51.146;6.576;2023-01-15T03:04:32;6.20;99.90
42907;DHT22;28552;51.146;6.576;2023-01-15T03:07:46;6.20;99.90
42907;DHT22;28552;51.146;6.576;2023-01-15T03:11:11;6.20;99.90
42907;DHT22;28552;51.146;6.576;2023-01-15T03:14:14;6.20;99.90
42907;DHT22;28552;51.146;6.576;2023-01-15T03:17:21;6.20;99.90
42907;DHT22;28552;51.146;6.576;2023-01-15T03:20:26;6.20;99.90
42907;DHT22;28552;51.146;6.576;2023-01-15T03:23:27;6.20;99.90
42907;DHT22;28552;51.146;6.576;2023-01-15T03:26:29;6.20;99.90
42907;DHT22;28552;51.146;6.576;2023-01-15T03:29:33;6.20;99.90
42907;DHT22;28552;51.146;6.576;2023-01-15T03:32:36;6.20;99.90
42907;DHT22;28552;51.146;6.576;2023-01-15T03:38:57;6.20;99.90
42907;DHT22;28552;51.146;6.576;2023-01-15T03:45:32;6.20;99.90
42907;DHT22;28552;51.146;6.576;2023-01-15T03:48:48;6.20;99.90
42907;DHT22;28552;51.146;6.576;2023-01-15T03:55:15;6.20;99.90
42907;DHT22;28552;51.146;6.576;2023-01-15T03:58:26;6.10;99.90
42907;DHT22;28552;51.146;6.576;2023-01-15T04:01:33;6.20;99.90
42907;DHT22;28552;51.146;6.576;2023-01-15T04:04:37;6.20;99.90
42907;DHT22;28552;51.146;6.576;2023-01-15T04:07:38;6.20;99.90
42907;DHT22;28552;51.146;6.576;2023-01-15T04:10:56;6.20;99.90
42907;DHT22;28552;51.146;6.576;2023-01-15T04:13:56;6.20;99.90
42907;DHT22;28552;51.146;6.576;2023-01-15T04:16:57;6.10;99.90
42907;DHT22;28552;51.146;6.576;2023-01-15T04:19:58;6.10;99.90
42907;DHT22;28552;51.146;6.576;2023-01-15T04:22:58;6.10;99.90
42907;DHT22;28552;51.146;6.576;2023-01-15T04:25:58;6.10;99.90
42907;DHT22;28552;51.146;6.576;2023-01-15T04:28:59;6.10;99.90
42907;DHT22;28552;51.146;6.576;2023-01-15T04:31:59;6.20;99.90
42907;DHT22;28552;51.146;6.576;2023-01-15T04:35:00;6.20;99.90
42907;DHT22;28552;51.146;6.576;2023-01-15T04:38:01;6.20;99.90
42907;DHT22;28552;51.146;6.576;2023-01-15T04:41:01;6.30;99.90
42907;DHT22;28552;51.146;6.576;2023-01-15T04:44:17;6.40;99.90
42907;DHT22;28552;51.146;6.576;2023-01-15T04:47:18;6.40;99.90
42907;DHT22;28552;51.146;6.576;2023-01-15T04:50:18;6.40;99.90
42907;DHT22;28552;51.146;6.576;2023-01-15T04:53:19;6.50;99.90
42907;DHT22;28552;51.146;6.576;2023-01-15T04:56:19;6.50;99.90
42907;DHT22;28552;51.146;6.576;2023-01-15T04:59:23;6.50;99.90
42907;DHT22;28552;51.146;6.576;2023-01-15T05:02:23;6.50;99.90
42907;DHT22;28552;51.146;6.576;2023-01-15T05:05:24;6.50;99.90
42907;DHT22;28552;51.146;6.576;2023-01-15T05:08:25;6.50;99.90
42907;DHT22;28552;51.146;6.576;2023-01-15T05:11:26;6.50;99.90
42907;DHT22;28552;51.146;6.576;2023-01-15T05:14:27;6.50;99.90
42907;DHT22;28552;51.146;6.576;2023-01-15T05:17:27;6.60;99.90
42907;DHT22;28552;51.146;6.576;2023-01-15T05:20:28;6.50;99.90
42907;DHT22;28552;51.146;6.576;2023-01-15T05:23:28;6.50;99.90
42907;DHT22;28552;51.146;6.576;2023-01-15T05:26:30;6.60;99.90
42907;DHT22;28552;51.146;6.576;2023-01-15T05:29:31;6.60;99.90
42907;DHT22;28552;51.146;6.576;2023-01-15T05:32:31;6.60;99.90
42907;DHT22;28552;51.146;6.576;2023-01-15T05:35:32;6.60;99.90
42907;DHT22;28552;51.146;6.576;2023-01-15T05:38:33;6.60;99.90
42907;DHT22;28552;51.146;6.576;2023-01-15T05:41:33;6.60;99.90
42907;DHT22;28552;51.146;6.576;2023-01-15T05:44:49;6.60;99.90
42907;DHT22;28552;51.146;6.576;2023-01-15T05:47:52;6.60;99.90
42907;DHT22;28552;51.146;6.576;2023-01-15T05:50:52;6.60;99.90
42907;DHT22;28552;51.146;6.576;2023-01-15T05:53:53;6.70;99.90
42907;DHT22;28552;51.146;6.576;2023-01-15T05:56:54;6.70;99.90
42907;DHT22;28552;51.146;6.576;2023-01-15T05:59:54;6.70;99.90
42907;DHT22;28552;51.146;6.576;2023-01-15T06:02:55;6.70;99.90
42907;DHT22;28552;51.146;6.576;2023-01-15T06:05:56;6.60;99.90
42907;DHT22;28552;51.146;6.576;2023-01-15T06:08:56;6.60;99.90
42907;DHT22;28552;51.146;6.576;2023-01-15T06:11:57;6.60;99.90
42907;DHT22;28552;51.146;6.576;2023-01-15T06:14:58;6.60;99.90
42907;DHT22;28552;51.146;6.576;2023-01-15T06:17:58;6.60;99.90
42907;DHT22;28552;51.146;6.576;2023-01-15T06:21:09;6.60;99.90
42907;DHT22;28552;51.146;6.576;2023-01-15T06:24:10;6.60;99.90
42907;DHT22;28552;51.146;6.576;2023-01-15T06:27:10;6.60;99.90
42907;DHT22;28552;51.146;6.576;2023-01-15T06:30:11;6.50;99.90
42907;DHT22;28552;51.146;6.576;2023-01-15T06:33:12;6.50;99.90
42907;DHT22;28552;51.146;6.576;2023-01-15T06:36:18;6.50;99.90
42907;DHT22;28552;51.146;6.576;2023-01-15T06:39:20;6.50;99.90
42907;DHT22;28552;51.146;6.576;2023-01-15T06:42:21;6.60;99.90
42907;DHT22;28552;51.146;6.576;2023-01-15T06:45:38;6.60;99.90
42907;DHT22;28552;51.146;6.576;2023-01-15T06:48:54;6.60;99.90
42907;DHT22;28552;51.146;6.576;2023-01-15T06:51:54;6.60;99.90
42907;DHT22;28552;51.146;6.576;2023-01-15T06:54:55;6.50;99.90
42907;DHT22;28552;51.146;6.576;2023-01-15T06:57:56;6.60;99.90
42907;DHT22;28552;51.146;6.576;2023-01-15T07:00:56;6.60;99.90
42907;DHT22;28552;51.146;6.576;2023-01-15T07:03:57;6.50;99.90
42907;DHT22;28552;51.146;6.576;2023-01-15T07:06:58;6.50;99.90
42907;DHT22;28552;51.146;6.576;2023-01-15T07:09:58;6.50;99.90
42907;DHT22;28552;51.146;6.576;2023-01-15T07:13:00;6.50;99.90
42907;DHT22;28552;51.146;6.576;2023-01-15T07:16:03;6.50;99.90
42907;DHT22;28552;51.146;6.576;2023-01-15T07:19:04;6.50;99.90
42907;DHT22;28552;51.146;6.576;2023-01-15T07:22:05;6.50;99.90
42907;DHT22;28552;51.146;6.576;2023-01-15T07:25:07;6.50;99.90
42907;DHT22;28552;51.146;6.576;2023-01-15T07:28:08;6.50;99.90
42907;DHT22;28552;51.146;6.576;2023-01-15T07:31:08;6.50;99.90
42907;DHT22;28552;51.146;6.576;2023-01-15T07:34:09;6.40;99.90
42907;DHT22;28552;51.146;6.576;2023-01-15T07:37:10;6.50;99.90
42907;DHT22;28552;51.146;6.576;2023-01-15T07:40:11;6.40;99.90
42907;DHT22;28552;51.146;6.576;2023-01-15T07:43:11;6.40;99.90
42907;DHT22;28552;51.146;6.576;2023-01-15T07:46:27;6.40;99.90
42907;DHT22;28552;51.146;6.576;2023-01-15T07:49:43;6.40;99.90
42907;DHT22;28552;51.146;6.576;2023-01-15T07:52:45;6.30;99.90
42907;DHT22;28552;51.146;6.576;2023-01-15T07:55:46;6.30;99.90
42907;DHT22;28552;51.146;6.576;2023-01-15T07:58:47;6.30;99.90
42907;DHT22;28552;51.146;6.576;2023-01-15T08:01:50;6.30;99.90
42907;DHT22;28552;51.146;6.576;2023-01-15T08:04:50;6.30;99.90
42907;DHT22;28552;51.146;6.576;2023-01-15T08:07:51;6.30;99.90
42907;DHT22;28552;51.146;6.576;2023-01-15T08:10:51;6.30;99.90
42907;DHT22;28552;51.146;6.576;2023-01-15T08:14:09;6.30;99.90
42907;DHT22;28552;51.146;6.576;2023-01-15T08:17:25;6.30;99.90
42907;DHT22;28552;51.146;6.576;2023-01-15T08:20:25;6.20;99.90
42907;DHT22;28552;51.146;6.576;2023-01-15T08:23:26;6.20;99.90
42907;DHT22;28552;51.146;6.576;2023-01-15T08:26:26;6.20;99.90
42907;DHT22;28552;51.146;6.576;2023-01-15T08:29:27;6.20;99.90
42907;DHT22;28552;51.146;6.576;2023-01-15T08:32:27;6.10;99.90
42907;DHT22;28552;51.146;6.576;2023-01-15T08:35:28;6.10;99.90
42907;DHT22;28552;51.146;6.576;2023-01-15T08:38:29;6.10;99.90
42907;DHT22;28552;51.146;6.576;2023-01-15T08:41:30;6.00;99.90
42907;DHT22;28552;51.146;6.576;2023-01-15T08:44:31;6.00;99.90
42907;DHT22;28552;51.146;6.576;2023-01-15T08:47:32;5.90;99.90
42907;DHT22;28552;51.146;6.576;2023-01-15T08:50:32;5.80;99.90
42907;DHT22;28552;51.146;6.576;2023-01-15T08:53:34;5.80;99.90
42907;DHT22;28552;51.146;6.576;2023-01-15T08:56:34;5.70;99.90
42907;DHT22;28552;51.146;6.576;2023-01-15T08:59:35;5.60;99.90
42907;DHT22;28552;51.146;6.576;2023-01-15T09:02:35;5.60;99.90
42907;DHT22;28552;51.146;6.576;2023-01-15T09:05:36;5.50;99.90
42907;DHT22;28552;51.146;6.576;2023-01-15T09:08:37;5.50;99.90
42907;DHT22;28552;51.146;6.576;2023-01-15T09:11:39;5.50;99.90
42907;DHT22;28552;51.146;6.576;2023-01-15T09:14:40;5.40;99.90
42907;DHT22;28552;51.146;6.576;2023-01-15T09:17:40;5.50;99.90
42907;DHT22;28552;51.146;6.576;2023-01-15T09:20:41;5.50;99.90
42907;DHT22;28552;51.146;6.576;2023-01-15T09:23:41;5.50;99.90
42907;DHT22;28552;51.146;6.576;2023-01-15T09:26:42;5.60;99.90
42907;DHT22;28552;51.146;6.576;2023-01-15T09:29:42;5.60;99.90
42907;DHT22;28552;51.146;6.576;2023-01-15T09:32:43;5.60;99.90
42907;DHT22;28552;51.146;6.576;2023-01-15T09:35:44;5.80;99.90
42907;DHT22;28552;51.146;6.576;2023-01-15T09:38:45;5.90;99.90
42907;DHT22;28552;51.146;6.576;2023-01-15T09:42:10;5.90;99.90
42907;DHT22;28552;51.146;6.576;2023-01-15T09:45:21;6.00;99.90
42907;DHT22;28552;51.146;6.576;2023-01-15T09:48:38;6.00;99.90
42907;DHT22;28552;51.146;6.576;2023-01-15T09:51:45;6.10;99.90
42907;DHT22;28552;51.146;6.576;2023-01-15T09:57:58;6.20;99.90
42907;DHT22;28552;51.146;6.576;2023-01-15T10:01:00;6.30;99.90
42907;DHT22;28552;51.146;6.576;2023-01-15T10:04:19;6.30;99.90
42907;DHT22;28552;51.146;6.576;2023-01-15T10:07:45;6.40;99.90
42907;DHT22;28552;51.146;6.576;2023-01-15T10:10:55;6.50;99.90
42907;DHT22;28552;51.146;6.576;2023-01-15T10:14:05;6.50;99.90
42907;DHT22;28552;51.146;6.576;2023-01-15T10:17:18;6.50;99.90
42907;DHT22;28552;51.146;6.576;2023-01-15T10:20:26;6.60;99.90
42907;DHT22;28552;51.146;6.576;2023-01-15T10:26:57;6.70;99.90
42907;DHT22;28552;51.146;6.576;2023-01-15T10:36:41;6.80;99.90
42907;DHT22;28552;51.146;6.576;2023-01-15T10:40:04;6.90;99.90
42907;DHT22;28552;51.146;6.576;2023-01-15T10:43:27;6.90;99.90
42907;DHT22;28552;51.146;6.576;2023-01-15T10:46:34;7.00;99.90
42907;DHT22;28552;51.146;6.576;2023-01-15T10:49:39;7.10;99.90
42907;DHT22;28552;51.146;6.576;2023-01-15T10:52:44;7.10;99.90
42907;DHT22;28552;51.146;6.576;2023-01-15T10:55:53;7.10;99.90
42907;DHT22;28552;51.146;6.576;2023-01-15T10:58:57;7.10;99.90
42907;DHT22;28552;51.146;6.576;2023-01-15T11:02:13;7.20;99.90
42907;DHT22;28552;51.146;6.576;2023-01-15T11:05:19;7.30;99.90
42907;DHT22;28552;51.146;6.576;2023-01-15T11:08:23;7.30;99.90
42907;DHT22;28552;51.146;6.576;2023-01-15T11:11:47;7.30;99.90
42907;DHT22;28552;51.146;6.576;2023-01-15T11:15:12;7.30;99.90
42907;DHT22;28552;51.146;6.576;2023-01-15T11:18:32;7.30;99.90
42907;DHT22;28552;51.146;6.576;2023-01-15T11:21:50;7.30;99.90
42907;DHT22;28552;51.146;6.576;2023-01-15T11:24:54;7.40;99.90
42907;DHT22;28552;51.146;6.576;2023-01-15T11:27:58;7.40;99.90
42907;DHT22;28552;51.146;6.576;2023-01-15T11:30:59;7.40;99.90
42907;DHT22;28552;51.146;6.576;2023-01-15T11:34:02;7.40;99.90
42907;DHT22;28552;51.146;6.576;2023-01-15T11:37:04;7.30;99.90
42907;DHT22;28552;51.146;6.576;2023-01-15T11:40:14;7.30;99.90
42907;DHT22;28552;51.146;6.576;2023-01-15T11:43:20;7.30;99.90
42907;DHT22;28552;51.146;6.576;2023-01-15T11:46:36;7.30;99.90
42907;DHT22;28552;51.146;6.576;2023-01-15T11:49:53;7.30;99.90
42907;DHT22;28552;51.146;6.576;2023-01-15T11:53:15;7.30;99.90
42907;DHT22;28552;51.146;6.576;2023-01-15T11:56:21;7.40;99.90
42907;DHT22;28552;51.146;6.576;2023-01-15T11:59:24;7.30;99.90
42907;DHT22;28552;51.146;6.576;2023-01-15T12:05:34;7.40;99.90
42907;DHT22;28552;51.146;6.576;2023-01-15T12:12:08;7.50;99.90
42907;DHT22;28552;51.146;6.576;2023-01-15T12:15:26;7.50;99.90
42907;DHT22;28552;51.146;6.576;2023-01-15T12:18:47;7.40;99.90
42907;DHT22;28552;51.146;6.576;2023-01-15T12:29:01;7.30;99.90
42907;DHT22;28552;51.146;6.576;2023-01-15T12:32:10;7.30;99.90
42907;DHT22;28552;51.146;6.576;2023-01-15T12:35:28;7.30;99.90
42907;DHT22;28552;51.146;6.576;2023-01-15T12:38:47;7.30;99.90
42907;DHT22;28552;51.146;6.576;2023-01-15T12:41:56;7.40;99.90
42907;DHT22;28552;51.146;6.576;2023-01-15T12:45:17;7.50;99.90
42907;DHT22;28552;51.146;6.576;2023-01-15T12:51:34;7.40;99.90
42907;DHT22;28552;51.146;6.576;2023-01-15T12:54:53;7.40;99.90
42907;DHT22;28552;51.146;6.576;2023-01-15T12:57:59;7.50;99.90
42907;DHT22;28552;51.146;6.576;2023-01-15T13:01:17;7.50;99.90
42907;DHT22;28552;51.146;6.576;2023-01-15T13:07:26;7.70;99.90
42907;DHT22;28552;51.146;6.576;2023-01-15T13:10:29;7.70;99.90
42907;DHT22;28552;51.146;6.576;2023-01-15T13:13:38;7.70;99.90
42907;DHT22;28552;51.146;6.576;2023-01-15T13:16:56;7.60;99.90
42907;DHT22;28552;51.146;6.576;2023-01-15T13:23:37;7.70;99.90
42907;DHT22;28552;51.146;6.576;2023-01-15T13:26:52;7.70;99.90
42907;DHT22;28552;51.146;6.576;2023-01-15T13:30:07;7.70;99.90
42907;DHT22;28552;51.146;6.576;2023-01-15T13:33:22;7.70;99.90
42907;DHT22;28552;51.146;6.576;2023-01-15T13:36:25;7.60;99.90
42907;DHT22;28552;51.146;6.576;2023-01-15T13:39:37;7.60;99.90
42907;DHT22;28552;51.146;6.576;2023-01-15T13:42:44;7.60;99.90
42907;DHT22;28552;51.146;6.576;2023-01-15T13:45:48;7.60;99.90
42907;DHT22;28552;51.146;6.576;2023-01-15T13:48:51;7.60;99.90
42907;DHT22;28552;51.146;6.576;2023-01-15T13:51:52;7.60;99.90
42907;DHT22;28552;51.146;6.576;2023-01-15T13:58:20;7.50;99.90
42907;DHT22;28552;51.146;6.576;2023-01-15T14:01:25;7.60;99.90
42907;DHT22;28552;51.146;6.576;2023-01-15T14:04:35;7.60;99.90
42907;DHT22;28552;51.146;6.576;2023-01-15T14:07:37;7.60;99.90
42907;DHT22;28552;51.146;6.576;2023-01-15T14:10:37;7.60;99.90
42907;DHT22;28552;51.146;6.576;2023-01-15T14:13:42;7.50;99.90
42907;DHT22;28552;51.146;6.576;2023-01-15T14:23:23;7.50;99.90
42907;DHT22;28552;51.146;6.576;2023-01-15T14:26:33;7.50;99.90
42907;DHT22;28552;51.146;6.576;2023-01-15T14:29:55;7.50;99.90
42907;DHT22;28552;51.146;6.576;2023-01-15T14:33:07;7.40;99.90
42907;DHT22;28552;51.146;6.576;2023-01-15T14:36:17;7.40;99.90
42907;DHT22;28552;51.146;6.576;2023-01-15T14:39:24;7.40;99.90
42907;DHT22;28552;51.146;6.576;2023-01-15T14:42:31;7.40;99.90
42907;DHT22;28552;51.146;6.576;2023-01-15T14:45:48;7.30;99.90
42907;DHT22;28552;51.146;6.576;2023-01-15T14:48:51;7.30;99.90
42907;DHT22;28552;51.146;6.576;2023-01-15T14:51:52;7.30;99.90
42907;DHT22;28552;51.146;6.576;2023-01-15T14:54:53;7.20;99.90
42907;DHT22;28552;51.146;6.576;2023-01-15T14:58:01;7.20;99.90
42907;DHT22;28552;51.146;6.576;2023-01-15T15:07:43;7.30;99.90
42907;DHT22;28552;51.146;6.576;2023-01-15T15:10:47;7.30;99.90
42907;DHT22;28552;51.146;6.576;2023-01-15T15:13:51;7.30;99.90
42907;DHT22;28552;51.146;6.576;2023-01-15T15:16:59;7.20;99.90
42907;DHT22;28552;51.146;6.576;2023-01-15T15:23:46;7.10;99.90
42907;DHT22;28552;51.146;6.576;2023-01-15T15:26:50;7.10;99.90
42907;DHT22;28552;51.146;6.576;2023-01-15T15:30:03;7.10;99.90
42907;DHT22;28552;51.146;6.576;2023-01-15T15:33:04;7.00;99.90
42907;DHT22;28552;51.146;6.576;2023-01-15T15:36:06;6.90;99.90
42907;DHT22;28552;51.146;6.576;2023-01-15T15:39:24;6.90;99.90
42907;DHT22;28552;51.146;6.576;2023-01-15T15:42:30;6.80;99.90
42907;DHT22;28552;51.146;6.576;2023-01-15T15:45:52;6.80;99.90
42907;DHT22;28552;51.146;6.576;2023-01-15T15:49:08;6.60;99.90
42907;DHT22;28552;51.146;6.576;2023-01-15T15:52:19;6.60;99.90
42907;DHT22;28552;51.146;6.576;2023-01-15T15:55:22;6.60;99.90
42907;DHT22;28552;51.146;6.576;2023-01-15T15:58:29;6.60;99.90
42907;DHT22;28552;51.146;6.576;2023-01-15T16:01:36;6.60;99.90
42907;DHT22;28552;51.146;6.576;2023-01-15T16:04:43;6.70;99.90
42907;DHT22;28552;51.146;6.576;2023-01-15T16:07:44;6.80;99.90
42907;DHT22;28552;51.146;6.576;2023-01-15T16:10:50;6.80;99.90
42907;DHT22;28552;51.146;6.576;2023-01-15T16:13:53;6.80;99.90
42907;DHT22;28552;51.146;6.576;2023-01-15T16:16:54;6.90;99.90
42907;DHT22;28552;51.146;6.576;2023-01-15T16:19:55;6.90;99.90
42907;DHT22;28552;51.146;6.576;2023-01-15T16:22:57;6.90;99.90
42907;DHT22;28552;51.146;6.576;2023-01-15T16:26:03;6.90;99.90
42907;DHT22;28552;51.146;6.576;2023-01-15T16:29:16;6.90;99.90
42907;DHT22;28552;51.146;6.576;2023-01-15T16:32:22;6.80;99.90
42907;DHT22;28552;51.146;6.576;2023-01-15T16:35:26;6.70;99.90
42907;DHT22;28552;51.146;6.576;2023-01-15T16:38:27;6.60;99.90
42907;DHT22;28552;51.146;6.576;2023-01-15T16:41:31;6.50;99.90
42907;DHT22;28552;51.146;6.576;2023-01-15T16:44:40;6.50;99.90
42907;DHT22;28552;51.146;6.576;2023-01-15T16:48:00;6.40;99.90
42907;DHT22;28552;51.146;6.576;2023-01-15T16:51:22;6.40;99.90
42907;DHT22;28552;51.146;6.576;2023-01-15T16:54:43;6.50;99.90
42907;DHT22;28552;51.146;6.576;2023-01-15T16:57:43;6.50;99.90
42907;DHT22;28552;51.146;6.576;2023-01-15T17:00:48;6.60;99.90
42907;DHT22;28552;51.146;6.576;2023-01-15T17:03:51;6.70;99.90
42907;DHT22;28552;51.146;6.576;2023-01-15T17:10:25;6.70;99.90
42907;DHT22;28552;51.146;6.576;2023-01-15T17:13:36;6.70;99.90
42907;DHT22;28552;51.146;6.576;2023-01-15T17:16:37;6.60;99.90
42907;DHT22;28552;51.146;6.576;2023-01-15T17:19:37;6.60;99.90
42907;DHT22;28552;51.146;6.576;2023-01-15T17:22:41;6.60;99.90
42907;DHT22;28552;51.146;6.576;2023-01-15T17:25:41;6.60;99.90
42907;DHT22;28552;51.146;6.576;2023-01-15T17:28:42;6.60;99.90
42907;DHT22;28552;51.146;6.576;2023-01-15T17:31:43;6.60;99.90
42907;DHT22;28552;51.146;6.576;2023-01-15T17:34:45;6.50;99.90
42907;DHT22;28552;51.146;6.576;2023-01-15T17:37:45;6.60;99.90
42907;DHT22;28552;51.146;6.576;2023-01-15T17:40:46;6.60;99.90
42907;DHT22;28552;51.146;6.576;2023-01-15T17:43:47;6.60;99.90
42907;DHT22;28552;51.146;6.576;2023-01-15T17:46:48;6.60;99.90
42907;DHT22;28552;51.146;6.576;2023-01-15T17:49:49;6.60;99.90
42907;DHT22;28552;51.146;6.576;2023-01-15T17:52:50;6.60;99.90
42907;DHT22;28552;51.146;6.576;2023-01-15T17:55:50;6.60;99.90
42907;DHT22;28552;51.146;6.576;2023-01-15T17:59:07;6.60;99.90
42907;DHT22;28552;51.146;6.576;2023-01-15T18:02:23;6.60;99.90
42907;DHT22;28552;51.146;6.576;2023-01-15T18:05:39;6.60;99.90
42907;DHT22;28552;51.146;6.576;2023-01-15T18:08:44;6.60;99.90
42907;DHT22;28552;51.146;6.576;2023-01-15T18:11:47;6.50;99.90
42907;DHT22;28552;51.146;6.576;2023-01-15T18:14:47;6.50;99.90
42907;DHT22;28552;51.146;6.576;2023-01-15T18:17:48;6.60;99.90
42907;DHT22;28552;51.146;6.576;2023-01-15T18:20:49;6.50;99.90
42907;DHT22;28552;51.146;6.576;2023-01-15T18:23:50;6.50;99.90
42907;DHT22;28552;51.146;6.576;2023-01-15T18:26:50;6.50;99.90
42907;DHT22;28552;51.146;6.576;2023-01-15T18:29:51;6.50;99.90
42907;DHT22;28552;51.146;6.576;2023-01-15T18:32:51;6.40;99.90
42907;DHT22;28552;51.146;6.576;2023-01-15T18:36:11;6.50;99.90
42907;DHT22;28552;51.146;6.576;2023-01-15T18:39:12;6.40;99.90
42907;DHT22;28552;51.146;6.576;2023-01-15T18:42:13;6.30;99.90
42907;DHT22;28552;51.146;6.576;2023-01-15T18:45:13;6.30;99.90
42907;DHT22;28552;51.146;6.576;2023-01-15T18:48:29;6.20;99.90
42907;DHT22;28552;51.146;6.576;2023-01-15T18:51:30;6.10;99.90
42907;DHT22;28552;51.146;6.576;2023-01-15T18:54:30;6.10;99.90
42907;DHT22;28552;51.146;6.576;2023-01-15T18:57:32;6.00;99.90
42907;DHT22;28552;51.146;6.576;2023-01-15T19:00:33;6.00;99.90
42907;DHT22;28552;51.146;6.576;2023-01-15T19:03:33;5.90;99.90
42907;DHT22;28552;51.146;6.576;2023-01-15T19:06:34;5.90;99.90
42907;DHT22;28552;51.146;6.576;2023-01-15T19:09:36;5.80;99.90
42907;DHT22;28552;51.146;6.576;2023-01-15T19:12:37;5.70;99.90
42907;DHT22;28552;51.146;6.576;2023-01-15T19:15:40;5.70;99.90
42907;DHT22;28552;51.146;6.576;2023-01-15T19:18:56;5.70;99.90
42907;DHT22;28552;51.146;6.576;2023-01-15T19:21:56;5.70;99.90
42907;DHT22;28552;51.146;6.576;2023-01-15T19:25:17;5.70;99.90
42907;DHT22;28552;51.146;6.576;2023-01-15T19:28:20;5.70;99.90
42907;DHT22;28552;51.146;6.576;2023-01-15T19:31:20;5.70;99.90
42907;DHT22;28552;51.146;6.576;2023-01-15T19:34:36;5.60;99.90
42907;DHT22;28552;51.146;6.576;2023-01-15T19:37:36;5.50;99.90
42907;DHT22;28552;51.146;6.576;2023-01-15T19:40:39;5.50;99.90
42907;DHT22;28552;51.146;6.576;2023-01-15T19:43:41;5.50;99.90
42907;DHT22;28552;51.146;6.576;2023-01-15T19:46:56;5.50;99.90
42907;DHT22;28552;51.146;6.576;2023-01-15T19:50:13;5.50;99.90
42907;DHT22;28552;51.146;6.576;2023-01-15T19:53:21;5.70;99.90
42907;DHT22;28552;51.146;6.576;2023-01-15T19:56:22;5.80;99.90
42907;DHT22;28552;51.146;6.576;2023-01-15T19:59:23;5.90;99.90
42907;DHT22;28552;51.146;6.576;2023-01-15T20:02:23;5.90;99.90
42907;DHT22;28552;51.146;6.576;2023-01-15T20:05:26;6.00;99.90
42907;DHT22;28552;51.146;6.576;2023-01-15T20:08:27;6.10;99.90
42907;DHT22;28552;51.146;6.576;2023-01-15T20:11:31;6.20;99.90
42907;DHT22;28552;51.146;6.576;2023-01-15T20:14:51;6.20;99.90
42907;DHT22;28552;51.146;6.576;2023-01-15T20:17:55;6.20;99.90
42907;DHT22;28552;51.146;6.576;2023-01-15T20:20:55;6.30;99.90
42907;DHT22;28552;51.146;6.576;2023-01-15T20:23:56;6.30;99.90
42907;DHT22;28552;51.146;6.576;2023-01-15T20:26:56;6.30;99.90
42907;DHT22;28552;51.146;6.576;2023-01-15T20:29:57;6.30;99.90
42907;DHT22;28552;51.146;6.576;2023-01-15T20:32:59;6.30;99.90
42907;DHT22;28552;51.146;6.576;2023-01-15T20:36:02;6.30;99.90
42907;DHT22;28552;51.146;6.576;2023-01-15T20:39:03;6.30;99.90
42907;DHT22;28552;51.146;6.576;2023-01-15T20:42:04;6.30;99.90
42907;DHT22;28552;51.146;6.576;2023-01-15T20:45:25;6.40;99.90
42907;DHT22;28552;51.146;6.576;2023-01-15T20:48:26;6.40;99.90
42907;DHT22;28552;51.146;6.576;2023-01-15T20:51:41;6.50;99.90
42907;DHT22;28552;51.146;6.576;2023-01-15T20:54:42;6.50;99.90
42907;DHT22;28552;51.146;6.576;2023-01-15T20:57:42;6.60;99.90
42907;DHT22;28552;51.146;6.576;2023-01-15T21:00:43;6.60;99.90
42907;DHT22;28552;51.146;6.576;2023-01-15T21:03:45;6.60;99.90